CheckWX is a tool to help pilots better visualize weather data.  It is not intended as a substitute for an official pre-flight weather briefing.

05:14:23 UTC

CYPH METAR
Inukjuak Airport
Inukjuak, Canada
Current

14 mins ago

CYPH 240500Z AUTO 22013KT 1 1/4SM -SN BKN095 BKN120 M19/M21 A2999 RMK SLP161
Observed
Feb-24 @ 05:00 UTC
Wind
  • 220° at 13 KTS
Visibility
1 1/4 SM
Flight Rules
IFR
Conditions
Light Snow
Cloud Levels
  • Broken at 9,500' AGL
  • Broken at 12,000' AGL
Temperature
-19°C / -2°F
Dewpoint
-21°C / -6°F
Humidity
84%
Altimeter
29.99" Hg
Pressure
1016.1 hPa
Previous

55 mins ago

CYPH 240419Z AUTO 22013KT 1SM -SN SCT003 BKN100 M19/M21 A3000 RMK SLP162
Observed
Feb-24 @ 04:19 UTC
Wind
  • 220° at 13 KTS
Visibility
1 SM
Flight Rules
IFR
Conditions
Light Snow
Cloud Levels
  • Scattered at 300' AGL
  • Broken at 10,000' AGL
Temperature
-19°C / -2°F
Dewpoint
-21°C / -6°F
Humidity
84%
Altimeter
30" Hg
Pressure
1016.2 hPa
Previous

1 hour ago

CYPH 240400Z AUTO 22013G18KT 1SM -SN VV003 M18/M21 A3000 RMK SLP162
Observed
Feb-24 @ 04:00 UTC
Wind
  • 220° at 13 KTS
  • Gusting to 18 KTS
Visibility
1 SM
Flight Rules
LIFR
Conditions
Light Snow
Cloud Levels
  • Vertical visibility at 300' AGL
Temperature
-18°C / -0°F
Dewpoint
-21°C / -6°F
Humidity
78%
Altimeter
30" Hg
Pressure
1016.2 hPa